sensor_id;sensor_type;location;lat;lon;timestamp;P1;durP1;ratioP1;P2;durP2;ratioP2
18568;SDS011;14780;48.316;-1.050;2022-12-24T00:00:56;8.90;;;4.00;;
18568;SDS011;14780;48.316;-1.050;2022-12-24T00:03:41;12.75;;;4.63;;
18568;SDS011;14780;48.316;-1.050;2022-12-24T00:06:25;11.55;;;4.20;;
18568;SDS011;14780;48.316;-1.050;2022-12-24T00:09:10;12.75;;;4.35;;
18568;SDS011;14780;48.316;-1.050;2022-12-24T00:11:55;10.40;;;4.18;;
18568;SDS011;14780;48.316;-1.050;2022-12-24T00:14:40;10.10;;;4.72;;
18568;SDS011;14780;48.316;-1.050;2022-12-24T00:17:24;8.45;;;4.20;;
18568;SDS011;14780;48.316;-1.050;2022-12-24T00:20:09;9.80;;;4.10;;
18568;SDS011;14780;48.316;-1.050;2022-12-24T00:22:54;10.50;;;4.53;;
18568;SDS011;14780;48.316;-1.050;2022-12-24T00:25:38;11.85;;;4.45;;
18568;SDS011;14780;48.316;-1.050;2022-12-24T00:28:24;14.25;;;4.70;;
18568;SDS011;14780;48.316;-1.050;2022-12-24T00:31:09;11.05;;;4.13;;
18568;SDS011;14780;48.316;-1.050;2022-12-24T00:33:55;8.32;;;3.70;;
18568;SDS011;14780;48.316;-1.050;2022-12-24T00:36:40;8.40;;;4.28;;
18568;SDS011;14780;48.316;-1.050;2022-12-24T00:39:25;8.50;;;4.47;;
18568;SDS011;14780;48.316;-1.050;2022-12-24T00:42:10;8.02;;;4.30;;
18568;SDS011;14780;48.316;-1.050;2022-12-24T00:44:54;9.18;;;3.90;;
18568;SDS011;14780;48.316;-1.050;2022-12-24T00:47:39;8.55;;;4.03;;
18568;SDS011;14780;48.316;-1.050;2022-12-24T00:50:24;10.07;;;4.35;;
18568;SDS011;14780;48.316;-1.050;2022-12-24T00:53:08;9.75;;;4.25;;
18568;SDS011;14780;48.316;-1.050;2022-12-24T00:55:53;9.40;;;4.20;;
18568;SDS011;14780;48.316;-1.050;2022-12-24T00:58:38;8.10;;;3.92;;
18568;SDS011;14780;48.316;-1.050;2022-12-24T01:01:22;10.32;;;4.40;;
18568;SDS011;14780;48.316;-1.050;2022-12-24T01:04:07;9.80;;;4.30;;
18568;SDS011;14780;48.316;-1.050;2022-12-24T01:07:11;8.05;;;3.90;;
18568;SDS011;14780;48.316;-1.050;2022-12-24T01:09:55;8.45;;;4.07;;
18568;SDS011;14780;48.316;-1.050;2022-12-24T01:12:40;8.45;;;3.97;;
18568;SDS011;14780;48.316;-1.050;2022-12-24T01:15:26;10.88;;;4.05;;
18568;SDS011;14780;48.316;-1.050;2022-12-24T01:18:11;9.20;;;4.03;;
18568;SDS011;14780;48.316;-1.050;2022-12-24T01:20:57;8.93;;;4.20;;
18568;SDS011;14780;48.316;-1.050;2022-12-24T01:23:44;9.13;;;4.22;;
18568;SDS011;14780;48.316;-1.050;2022-12-24T01:26:29;10.40;;;4.25;;
18568;SDS011;14780;48.316;-1.050;2022-12-24T01:29:14;8.55;;;3.97;;
18568;SDS011;14780;48.316;-1.050;2022-12-24T01:31:59;11.10;;;4.28;;
18568;SDS011;14780;48.316;-1.050;2022-12-24T01:34:43;9.20;;;4.30;;
18568;SDS011;14780;48.316;-1.050;2022-12-24T01:37:28;13.18;;;4.50;;
18568;SDS011;14780;48.316;-1.050;2022-12-24T01:40:13;9.93;;;4.25;;
18568;SDS011;14780;48.316;-1.050;2022-12-24T01:43:20;9.50;;;3.85;;
18568;SDS011;14780;48.316;-1.050;2022-12-24T01:49:01;10.18;;;4.43;;
18568;SDS011;14780;48.316;-1.050;2022-12-24T01:51:53;10.15;;;4.32;;
18568;SDS011;14780;48.316;-1.050;2022-12-24T01:55:13;9.27;;;4.25;;
18568;SDS011;14780;48.316;-1.050;2022-12-24T01:58:00;11.15;;;4.35;;
18568;SDS011;14780;48.316;-1.050;2022-12-24T02:00:48;9.50;;;4.28;;
18568;SDS011;14780;48.316;-1.050;2022-12-24T02:03:32;8.52;;;4.32;;
18568;SDS011;14780;48.316;-1.050;2022-12-24T02:06:18;10.27;;;4.65;;
18568;SDS011;14780;48.316;-1.050;2022-12-24T02:09:05;11.25;;;4.20;;
18568;SDS011;14780;48.316;-1.050;2022-12-24T02:11:50;9.27;;;4.38;;
18568;SDS011;14780;48.316;-1.050;2022-12-24T02:14:35;14.55;;;4.20;;
18568;SDS011;14780;48.316;-1.050;2022-12-24T02:17:31;7.93;;;4.10;;
18568;SDS011;14780;48.316;-1.050;2022-12-24T02:33:02;9.25;;;4.38;;
18568;SDS011;14780;48.316;-1.050;2022-12-24T02:39:03;7.60;;;4.22;;
18568;SDS011;14780;48.316;-1.050;2022-12-24T02:41:53;9.02;;;4.30;;
18568;SDS011;14780;48.316;-1.050;2022-12-24T02:44:54;9.57;;;3.88;;
18568;SDS011;14780;48.316;-1.050;2022-12-24T02:47:45;9.02;;;4.10;;
18568;SDS011;14780;48.316;-1.050;2022-12-24T02:50:31;8.77;;;3.95;;
18568;SDS011;14780;48.316;-1.050;2022-12-24T02:53:16;10.32;;;4.47;;
18568;SDS011;14780;48.316;-1.050;2022-12-24T02:59:13;10.73;;;4.07;;
18568;SDS011;14780;48.316;-1.050;2022-12-24T03:05:59;8.77;;;4.13;;
18568;SDS011;14780;48.316;-1.050;2022-12-24T03:09:15;10.80;;;4.00;;
18568;SDS011;14780;48.316;-1.050;2022-12-24T03:12:11;9.05;;;3.92;;
18568;SDS011;14780;48.316;-1.050;2022-12-24T03:14:59;11.80;;;4.30;;
18568;SDS011;14780;48.316;-1.050;2022-12-24T03:17:46;7.97;;;3.53;;
18568;SDS011;14780;48.316;-1.050;2022-12-24T03:20:34;10.73;;;4.43;;
18568;SDS011;14780;48.316;-1.050;2022-12-24T03:23:26;9.90;;;3.90;;
18568;SDS011;14780;48.316;-1.050;2022-12-24T03:26:11;11.23;;;4.47;;
18568;SDS011;14780;48.316;-1.050;2022-12-24T03:28:59;9.88;;;3.83;;
18568;SDS011;14780;48.316;-1.050;2022-12-24T03:31:51;9.50;;;4.25;;
18568;SDS011;14780;48.316;-1.050;2022-12-24T03:34:42;6.93;;;3.70;;
18568;SDS011;14780;48.316;-1.050;2022-12-24T03:37:27;9.30;;;3.65;;
18568;SDS011;14780;48.316;-1.050;2022-12-24T03:40:11;9.13;;;3.95;;
18568;SDS011;14780;48.316;-1.050;2022-12-24T03:42:56;11.25;;;3.88;;
18568;SDS011;14780;48.316;-1.050;2022-12-24T03:45:41;6.35;;;3.22;;
18568;SDS011;14780;48.316;-1.050;2022-12-24T03:48:26;8.45;;;4.05;;
18568;SDS011;14780;48.316;-1.050;2022-12-24T03:51:18;7.65;;;3.72;;
18568;SDS011;14780;48.316;-1.050;2022-12-24T03:54:04;9.90;;;4.15;;
18568;SDS011;14780;48.316;-1.050;2022-12-24T03:56:48;7.47;;;3.70;;
18568;SDS011;14780;48.316;-1.050;2022-12-24T03:59:33;8.70;;;3.75;;
18568;SDS011;14780;48.316;-1.050;2022-12-24T04:02:18;6.25;;;3.28;;
18568;SDS011;14780;48.316;-1.050;2022-12-24T04:05:02;7.80;;;3.55;;
18568;SDS011;14780;48.316;-1.050;2022-12-24T04:07:48;10.02;;;4.18;;
18568;SDS011;14780;48.316;-1.050;2022-12-24T04:10:33;8.82;;;3.83;;
18568;SDS011;14780;48.316;-1.050;2022-12-24T04:13:17;8.70;;;3.72;;
18568;SDS011;14780;48.316;-1.050;2022-12-24T04:16:06;7.65;;;3.58;;
18568;SDS011;14780;48.316;-1.050;2022-12-24T04:18:53;10.13;;;3.83;;
18568;SDS011;14780;48.316;-1.050;2022-12-24T04:21:37;8.88;;;4.22;;
18568;SDS011;14780;48.316;-1.050;2022-12-24T04:24:22;8.25;;;3.72;;
18568;SDS011;14780;48.316;-1.050;2022-12-24T04:27:07;9.38;;;3.70;;
18568;SDS011;14780;48.316;-1.050;2022-12-24T04:29:52;9.20;;;3.63;;
18568;SDS011;14780;48.316;-1.050;2022-12-24T04:32:36;7.18;;;3.60;;
18568;SDS011;14780;48.316;-1.050;2022-12-24T04:35:21;8.82;;;3.80;;
18568;SDS011;14780;48.316;-1.050;2022-12-24T04:38:07;7.80;;;3.53;;
18568;SDS011;14780;48.316;-1.050;2022-12-24T04:41:03;6.88;;;3.35;;
18568;SDS011;14780;48.316;-1.050;2022-12-24T04:43:50;8.80;;;3.78;;
18568;SDS011;14780;48.316;-1.050;2022-12-24T04:46:36;8.52;;;3.47;;
18568;SDS011;14780;48.316;-1.050;2022-12-24T04:49:20;6.07;;;3.58;;
18568;SDS011;14780;48.316;-1.050;2022-12-24T04:52:05;8.48;;;3.63;;
18568;SDS011;14780;48.316;-1.050;2022-12-24T04:54:50;7.00;;;3.42;;
18568;SDS011;14780;48.316;-1.050;2022-12-24T04:57:34;7.55;;;3.20;;
18568;SDS011;14780;48.316;-1.050;2022-12-24T05:00:20;7.82;;;3.40;;
18568;SDS011;14780;48.316;-1.050;2022-12-24T05:03:05;10.25;;;3.85;;
18568;SDS011;14780;48.316;-1.050;2022-12-24T05:05:49;8.40;;;3.45;;
18568;SDS011;14780;48.316;-1.050;2022-12-24T05:08:34;9.82;;;3.67;;
18568;SDS011;14780;48.316;-1.050;2022-12-24T05:11:19;7.50;;;3.20;;
18568;SDS011;14780;48.316;-1.050;2022-12-24T05:14:04;6.13;;;3.28;;
18568;SDS011;14780;48.316;-1.050;2022-12-24T05:16:49;6.05;;;3.30;;
18568;SDS011;14780;48.316;-1.050;2022-12-24T05:19:33;6.63;;;3.30;;
18568;SDS011;14780;48.316;-1.050;2022-12-24T05:22:18;5.78;;;2.92;;
18568;SDS011;14780;48.316;-1.050;2022-12-24T05:25:22;6.97;;;3.10;;
18568;SDS011;14780;48.316;-1.050;2022-12-24T05:28:25;5.50;;;2.88;;
18568;SDS011;14780;48.316;-1.050;2022-12-24T05:31:10;7.65;;;3.30;;
18568;SDS011;14780;48.316;-1.050;2022-12-24T05:33:55;7.38;;;3.33;;
18568;SDS011;14780;48.316;-1.050;2022-12-24T05:36:41;7.25;;;2.95;;
18568;SDS011;14780;48.316;-1.050;2022-12-24T05:39:26;5.78;;;3.00;;
18568;SDS011;14780;48.316;-1.050;2022-12-24T05:42:11;7.85;;;3.22;;
18568;SDS011;14780;48.316;-1.050;2022-12-24T05:44:55;7.55;;;2.90;;
18568;SDS011;14780;48.316;-1.050;2022-12-24T05:47:40;8.32;;;2.90;;
18568;SDS011;14780;48.316;-1.050;2022-12-24T05:50:25;7.47;;;3.15;;
18568;SDS011;14780;48.316;-1.050;2022-12-24T05:53:09;7.35;;;3.08;;
18568;SDS011;14780;48.316;-1.050;2022-12-24T05:55:54;5.80;;;2.72;;
18568;SDS011;14780;48.316;-1.050;2022-12-24T05:58:44;4.87;;;2.60;;
18568;SDS011;14780;48.316;-1.050;2022-12-24T06:01:29;7.53;;;3.20;;
18568;SDS011;14780;48.316;-1.050;2022-12-24T06:04:14;6.85;;;3.08;;
18568;SDS011;14780;48.316;-1.050;2022-12-24T06:06:58;5.65;;;2.72;;
18568;SDS011;14780;48.316;-1.050;2022-12-24T06:09:43;6.32;;;2.85;;
18568;SDS011;14780;48.316;-1.050;2022-12-24T06:12:27;6.03;;;2.85;;
18568;SDS011;14780;48.316;-1.050;2022-12-24T06:15:12;6.25;;;2.88;;
18568;SDS011;14780;48.316;-1.050;2022-12-24T06:17:57;6.65;;;2.80;;
18568;SDS011;14780;48.316;-1.050;2022-12-24T06:20:42;5.00;;;2.85;;
18568;SDS011;14780;48.316;-1.050;2022-12-24T06:23:31;5.80;;;3.00;;
18568;SDS011;14780;48.316;-1.050;2022-12-24T06:26:18;5.88;;;3.20;;
18568;SDS011;14780;48.316;-1.050;2022-12-24T06:29:04;5.00;;;2.35;;
18568;SDS011;14780;48.316;-1.050;2022-12-24T06:31:49;6.25;;;2.58;;
18568;SDS011;14780;48.316;-1.050;2022-12-24T06:34:34;7.38;;;2.85;;
18568;SDS011;14780;48.316;-1.050;2022-12-24T06:37:19;6.75;;;2.90;;
18568;SDS011;14780;48.316;-1.050;2022-12-24T06:40:04;6.72;;;3.08;;
18568;SDS011;14780;48.316;-1.050;2022-12-24T06:42:50;5.63;;;2.72;;
18568;SDS011;14780;48.316;-1.050;2022-12-24T06:45:34;4.28;;;2.38;;
18568;SDS011;14780;48.316;-1.050;2022-12-24T06:48:19;4.57;;;2.28;;
18568;SDS011;14780;48.316;-1.050;2022-12-24T06:51:04;4.97;;;2.40;;
18568;SDS011;14780;48.316;-1.050;2022-12-24T06:53:48;6.70;;;2.60;;
18568;SDS011;14780;48.316;-1.050;2022-12-24T06:56:33;5.38;;;2.80;;
18568;SDS011;14780;48.316;-1.050;2022-12-24T06:59:17;7.13;;;2.83;;
18568;SDS011;14780;48.316;-1.050;2022-12-24T07:02:02;4.00;;;2.38;;
18568;SDS011;14780;48.316;-1.050;2022-12-24T07:04:46;6.13;;;2.83;;
18568;SDS011;14780;48.316;-1.050;2022-12-24T07:07:31;5.60;;;2.80;;
18568;SDS011;14780;48.316;-1.050;2022-12-24T07:10:16;4.50;;;2.30;;
18568;SDS011;14780;48.316;-1.050;2022-12-24T07:13:02;5.60;;;2.58;;
18568;SDS011;14780;48.316;-1.050;2022-12-24T07:15:55;5.85;;;2.58;;
18568;SDS011;14780;48.316;-1.050;2022-12-24T07:18:40;5.80;;;2.50;;
18568;SDS011;14780;48.316;-1.050;2022-12-24T07:21:26;5.40;;;2.70;;
18568;SDS011;14780;48.316;-1.050;2022-12-24T07:24:10;5.38;;;2.35;;
18568;SDS011;14780;48.316;-1.050;2022-12-24T07:26:55;6.05;;;2.72;;
18568;SDS011;14780;48.316;-1.050;2022-12-24T07:29:39;4.95;;;2.35;;
18568;SDS011;14780;48.316;-1.050;2022-12-24T07:32:24;5.90;;;2.38;;
18568;SDS011;14780;48.316;-1.050;2022-12-24T07:35:09;5.82;;;2.80;;
18568;SDS011;14780;48.316;-1.050;2022-12-24T07:37:53;6.85;;;2.65;;
18568;SDS011;14780;48.316;-1.050;2022-12-24T07:40:38;7.68;;;2.97;;
18568;SDS011;14780;48.316;-1.050;2022-12-24T07:43:22;6.97;;;2.92;;
18568;SDS011;14780;48.316;-1.050;2022-12-24T07:46:08;4.35;;;2.30;;
18568;SDS011;14780;48.316;-1.050;2022-12-24T07:48:53;4.95;;;2.47;;
18568;SDS011;14780;48.316;-1.050;2022-12-24T07:51:38;6.20;;;2.45;;
18568;SDS011;14780;48.316;-1.050;2022-12-24T07:54:22;8.50;;;2.72;;
18568;SDS011;14780;48.316;-1.050;2022-12-24T07:57:07;4.80;;;2.30;;
18568;SDS011;14780;48.316;-1.050;2022-12-24T07:59:52;7.45;;;2.83;;
18568;SDS011;14780;48.316;-1.050;2022-12-24T08:02:37;4.75;;;2.40;;
18568;SDS011;14780;48.316;-1.050;2022-12-24T08:05:21;4.75;;;2.50;;
18568;SDS011;14780;48.316;-1.050;2022-12-24T08:08:06;6.07;;;2.70;;
18568;SDS011;14780;48.316;-1.050;2022-12-24T08:10:51;6.22;;;2.47;;
18568;SDS011;14780;48.316;-1.050;2022-12-24T08:13:36;7.07;;;2.80;;
18568;SDS011;14780;48.316;-1.050;2022-12-24T08:16:21;5.80;;;2.75;;
18568;SDS011;14780;48.316;-1.050;2022-12-24T08:19:06;4.93;;;2.50;;
18568;SDS011;14780;48.316;-1.050;2022-12-24T08:21:50;4.47;;;2.50;;
18568;SDS011;14780;48.316;-1.050;2022-12-24T08:24:35;5.93;;;2.45;;
18568;SDS011;14780;48.316;-1.050;2022-12-24T08:27:20;5.88;;;2.65;;
18568;SDS011;14780;48.316;-1.050;2022-12-24T08:30:05;6.45;;;2.22;;
18568;SDS011;14780;48.316;-1.050;2022-12-24T08:32:50;6.90;;;2.67;;
18568;SDS011;14780;48.316;-1.050;2022-12-24T08:35:35;6.15;;;2.42;;
18568;SDS011;14780;48.316;-1.050;2022-12-24T08:38:21;6.70;;;2.45;;
18568;SDS011;14780;48.316;-1.050;2022-12-24T08:41:06;6.88;;;2.63;;
18568;SDS011;14780;48.316;-1.050;2022-12-24T08:43:51;5.72;;;2.50;;
18568;SDS011;14780;48.316;-1.050;2022-12-24T08:46:35;6.15;;;2.45;;
18568;SDS011;14780;48.316;-1.050;2022-12-24T08:49:20;10.68;;;2.50;;
18568;SDS011;14780;48.316;-1.050;2022-12-24T08:52:05;7.85;;;2.65;;
18568;SDS011;14780;48.316;-1.050;2022-12-24T08:54:50;7.85;;;2.47;;
18568;SDS011;14780;48.316;-1.050;2022-12-24T08:57:35;5.10;;;2.92;;
18568;SDS011;14780;48.316;-1.050;2022-12-24T09:00:20;7.30;;;2.50;;
18568;SDS011;14780;48.316;-1.050;2022-12-24T09:03:05;4.65;;;2.13;;
18568;SDS011;14780;48.316;-1.050;2022-12-24T09:05:50;7.25;;;2.53;;
18568;SDS011;14780;48.316;-1.050;2022-12-24T09:08:36;8.82;;;2.47;;
18568;SDS011;14780;48.316;-1.050;2022-12-24T09:11:21;6.03;;;2.42;;
18568;SDS011;14780;48.316;-1.050;2022-12-24T09:14:06;9.25;;;2.47;;
18568;SDS011;14780;48.316;-1.050;2022-12-24T09:16:50;7.55;;;2.10;;
18568;SDS011;14780;48.316;-1.050;2022-12-24T09:19:35;6.82;;;2.40;;
18568;SDS011;14780;48.316;-1.050;2022-12-24T09:22:20;7.18;;;2.78;;
18568;SDS011;14780;48.316;-1.050;2022-12-24T09:25:05;7.10;;;2.42;;
18568;SDS011;14780;48.316;-1.050;2022-12-24T09:27:51;5.65;;;2.47;;
18568;SDS011;14780;48.316;-1.050;2022-12-24T09:30:36;6.20;;;2.38;;
18568;SDS011;14780;48.316;-1.050;2022-12-24T09:33:21;6.43;;;2.47;;
18568;SDS011;14780;48.316;-1.050;2022-12-24T09:36:06;10.13;;;2.58;;
18568;SDS011;14780;48.316;-1.050;2022-12-24T09:38:51;6.18;;;2.25;;
18568;SDS011;14780;48.316;-1.050;2022-12-24T09:47:57;4.32;;;2.10;;
18568;SDS011;14780;48.316;-1.050;2022-12-24T09:51:07;7.13;;;2.60;;
18568;SDS011;14780;48.316;-1.050;2022-12-24T09:57:03;3.25;;;1.75;;
18568;SDS011;14780;48.316;-1.050;2022-12-24T09:59:51;7.05;;;2.60;;
18568;SDS011;14780;48.316;-1.050;2022-12-24T10:02:36;5.43;;;2.55;;
18568;SDS011;14780;48.316;-1.050;2022-12-24T10:05:58;5.00;;;2.10;;
18568;SDS011;14780;48.316;-1.050;2022-12-24T10:11:40;13.65;;;2.55;;
18568;SDS011;14780;48.316;-1.050;2022-12-24T10:20:59;4.50;;;2.20;;
18568;SDS011;14780;48.316;-1.050;2022-12-24T10:24:16;3.97;;;2.13;;
18568;SDS011;14780;48.316;-1.050;2022-12-24T10:27:14;5.43;;;2.33;;
18568;SDS011;14780;48.316;-1.050;2022-12-24T10:30:05;5.25;;;2.40;;
18568;SDS011;14780;48.316;-1.050;2022-12-24T10:32:57;4.63;;;2.30;;
18568;SDS011;14780;48.316;-1.050;2022-12-24T10:35:43;4.82;;;2.33;;
18568;SDS011;14780;48.316;-1.050;2022-12-24T10:38:36;6.60;;;2.55;;
18568;SDS011;14780;48.316;-1.050;2022-12-24T10:41:21;4.85;;;2.17;;
18568;SDS011;14780;48.316;-1.050;2022-12-24T10:44:09;4.75;;;2.17;;
18568;SDS011;14780;48.316;-1.050;2022-12-24T10:47:00;6.07;;;2.45;;
18568;SDS011;14780;48.316;-1.050;2022-12-24T10:49:52;4.72;;;2.30;;
18568;SDS011;14780;48.316;-1.050;2022-12-24T10:52:44;5.47;;;2.30;;
18568;SDS011;14780;48.316;-1.050;2022-12-24T10:55:29;6.20;;;2.38;;
18568;SDS011;14780;48.316;-1.050;2022-12-24T10:58:14;2.70;;;1.70;;
18568;SDS011;14780;48.316;-1.050;2022-12-24T11:01:02;5.03;;;2.30;;
18568;SDS011;14780;48.316;-1.050;2022-12-24T11:04:00;5.47;;;2.40;;
18568;SDS011;14780;48.316;-1.050;2022-12-24T11:07:19;4.88;;;2.30;;
18568;SDS011;14780;48.316;-1.050;2022-12-24T11:10:03;5.05;;;2.50;;
18568;SDS011;14780;48.316;-1.050;2022-12-24T11:12:49;6.68;;;2.22;;
18568;SDS011;14780;48.316;-1.050;2022-12-24T11:15:34;6.00;;;2.30;;
18568;SDS011;14780;48.316;-1.050;2022-12-24T11:18:19;3.63;;;2.00;;
18568;SDS011;14780;48.316;-1.050;2022-12-24T11:21:05;4.55;;;2.33;;
18568;SDS011;14780;48.316;-1.050;2022-12-24T11:23:52;3.65;;;1.92;;
18568;SDS011;14780;48.316;-1.050;2022-12-24T11:35:47;4.25;;;1.90;;
18568;SDS011;14780;48.316;-1.050;2022-12-24T11:38:43;3.97;;;2.30;;
18568;SDS011;14780;48.316;-1.050;2022-12-24T11:41:39;5.05;;;2.60;;
18568;SDS011;14780;48.316;-1.050;2022-12-24T11:44:25;4.50;;;2.30;;
18568;SDS011;14780;48.316;-1.050;2022-12-24T11:47:11;4.00;;;2.10;;
18568;SDS011;14780;48.316;-1.050;2022-12-24T11:50:16;3.60;;;2.00;;
18568;SDS011;14780;48.316;-1.050;2022-12-24T11:53:14;6.35;;;2.17;;
18568;SDS011;14780;48.316;-1.050;2022-12-24T11:56:14;4.75;;;2.10;;
18568;SDS011;14780;48.316;-1.050;2022-12-24T11:59:08;4.80;;;2.15;;
18568;SDS011;14780;48.316;-1.050;2022-12-24T12:02:12;6.07;;;2.40;;
18568;SDS011;14780;48.316;-1.050;2022-12-24T12:08:16;2.42;;;1.70;;
18568;SDS011;14780;48.316;-1.050;2022-12-24T12:11:03;4.90;;;2.03;;
18568;SDS011;14780;48.316;-1.050;2022-12-24T12:13:57;3.80;;;2.13;;
18568;SDS011;14780;48.316;-1.050;2022-12-24T12:26:06;4.20;;;2.28;;
18568;SDS011;14780;48.316;-1.050;2022-12-24T12:28:59;7.25;;;2.40;;
18568;SDS011;14780;48.316;-1.050;2022-12-24T12:32:10;4.00;;;2.20;;
18568;SDS011;14780;48.316;-1.050;2022-12-24T12:35:15;5.45;;;2.50;;
18568;SDS011;14780;48.316;-1.050;2022-12-24T12:38:19;3.75;;;2.10;;
18568;SDS011;14780;48.316;-1.050;2022-12-24T12:50:33;5.90;;;2.50;;
18568;SDS011;14780;48.316;-1.050;2022-12-24T12:56:55;6.18;;;2.30;;
18568;SDS011;14780;48.316;-1.050;2022-12-24T12:59:45;4.93;;;2.10;;
18568;SDS011;14780;48.316;-1.050;2022-12-24T13:08:52;3.78;;;1.83;;
18568;SDS011;14780;48.316;-1.050;2022-12-24T13:21:32;9.10;;;2.53;;
18568;SDS011;14780;48.316;-1.050;2022-12-24T13:24:17;6.78;;;2.50;;
18568;SDS011;14780;48.316;-1.050;2022-12-24T13:27:16;6.60;;;2.35;;
18568;SDS011;14780;48.316;-1.050;2022-12-24T13:30:30;3.90;;;1.83;;
18568;SDS011;14780;48.316;-1.050;2022-12-24T13:36:23;5.78;;;2.33;;
18568;SDS011;14780;48.316;-1.050;2022-12-24T13:39:16;6.82;;;2.75;;
18568;SDS011;14780;48.316;-1.050;2022-12-24T13:42:02;4.75;;;2.40;;
18568;SDS011;14780;48.316;-1.050;2022-12-24T13:44:47;6.45;;;2.60;;
18568;SDS011;14780;48.316;-1.050;2022-12-24T13:50:59;5.68;;;2.40;;
18568;SDS011;14780;48.316;-1.050;2022-12-24T13:54:00;5.05;;;2.13;;
18568;SDS011;14780;48.316;-1.050;2022-12-24T13:56:46;12.80;;;2.35;;
18568;SDS011;14780;48.316;-1.050;2022-12-24T13:59:33;7.53;;;2.75;;
18568;SDS011;14780;48.316;-1.050;2022-12-24T14:02:21;6.05;;;2.28;;
18568;SDS011;14780;48.316;-1.050;2022-12-24T14:05:07;4.60;;;2.33;;
18568;SDS011;14780;48.316;-1.050;2022-12-24T14:08:03;4.35;;;2.22;;
18568;SDS011;14780;48.316;-1.050;2022-12-24T14:16:30;7.88;;;2.85;;
18568;SDS011;14780;48.316;-1.050;2022-12-24T14:19:25;5.45;;;2.50;;
18568;SDS011;14780;48.316;-1.050;2022-12-24T14:25:21;5.55;;;2.45;;
18568;SDS011;14780;48.316;-1.050;2022-12-24T14:28:11;5.18;;;2.40;;
18568;SDS011;14780;48.316;-1.050;2022-12-24T14:31:02;5.63;;;2.45;;
18568;SDS011;14780;48.316;-1.050;2022-12-24T14:33:48;5.82;;;2.50;;
18568;SDS011;14780;48.316;-1.050;2022-12-24T14:36:33;5.80;;;2.60;;
18568;SDS011;14780;48.316;-1.050;2022-12-24T14:39:26;6.22;;;2.50;;
18568;SDS011;14780;48.316;-1.050;2022-12-24T14:45:28;5.35;;;2.42;;
18568;SDS011;14780;48.316;-1.050;2022-12-24T14:48:30;7.40;;;2.17;;
18568;SDS011;14780;48.316;-1.050;2022-12-24T14:51:55;6.63;;;2.40;;
18568;SDS011;14780;48.316;-1.050;2022-12-24T14:54:58;3.90;;;2.30;;
18568;SDS011;14780;48.316;-1.050;2022-12-24T14:57:43;5.38;;;2.40;;
18568;SDS011;14780;48.316;-1.050;2022-12-24T15:00:27;8.02;;;2.50;;
18568;SDS011;14780;48.316;-1.050;2022-12-24T15:03:13;5.53;;;2.70;;
18568;SDS011;14780;48.316;-1.050;2022-12-24T15:06:03;6.68;;;2.35;;
18568;SDS011;14780;48.316;-1.050;2022-12-24T15:08:49;7.20;;;2.65;;
18568;SDS011;14780;48.316;-1.050;2022-12-24T15:11:34;5.97;;;2.70;;
18568;SDS011;14780;48.316;-1.050;2022-12-24T15:14:20;5.00;;;2.13;;
18568;SDS011;14780;48.316;-1.050;2022-12-24T15:17:08;11.27;;;2.40;;
18568;SDS011;14780;48.316;-1.050;2022-12-24T15:19:54;8.73;;;2.42;;
18568;SDS011;14780;48.316;-1.050;2022-12-24T15:22:40;4.35;;;2.25;;
18568;SDS011;14780;48.316;-1.050;2022-12-24T15:25:30;7.10;;;2.65;;
18568;SDS011;14780;48.316;-1.050;2022-12-24T15:28:17;8.02;;;2.47;;
18568;SDS011;14780;48.316;-1.050;2022-12-24T15:31:04;7.90;;;2.50;;
18568;SDS011;14780;48.316;-1.050;2022-12-24T15:33:56;6.68;;;2.55;;
18568;SDS011;14780;48.316;-1.050;2022-12-24T15:36:42;7.70;;;2.60;;
18568;SDS011;14780;48.316;-1.050;2022-12-24T15:39:27;6.97;;;2.53;;
18568;SDS011;14780;48.316;-1.050;2022-12-24T15:42:14;4.20;;;2.10;;
18568;SDS011;14780;48.316;-1.050;2022-12-24T15:45:12;4.25;;;2.10;;
18568;SDS011;14780;48.316;-1.050;2022-12-24T15:48:07;6.88;;;2.20;;
18568;SDS011;14780;48.316;-1.050;2022-12-24T15:50:55;6.30;;;2.35;;
18568;SDS011;14780;48.316;-1.050;2022-12-24T15:53:42;4.28;;;2.10;;
18568;SDS011;14780;48.316;-1.050;2022-12-24T16:02:18;3.92;;;2.05;;
18568;SDS011;14780;48.316;-1.050;2022-12-24T16:08:21;9.23;;;2.65;;
18568;SDS011;14780;48.316;-1.050;2022-12-24T16:11:09;4.80;;;2.20;;
18568;SDS011;14780;48.316;-1.050;2022-12-24T16:14:16;4.43;;;1.88;;
18568;SDS011;14780;48.316;-1.050;2022-12-24T16:17:09;4.90;;;2.20;;
18568;SDS011;14780;48.316;-1.050;2022-12-24T16:20:05;5.30;;;2.63;;
18568;SDS011;14780;48.316;-1.050;2022-12-24T16:22:58;8.00;;;2.50;;
18568;SDS011;14780;48.316;-1.050;2022-12-24T16:25:43;7.40;;;2.60;;
18568;SDS011;14780;48.316;-1.050;2022-12-24T16:28:27;7.32;;;2.67;;
18568;SDS011;14780;48.316;-1.050;2022-12-24T16:31:17;6.70;;;2.53;;
18568;SDS011;14780;48.316;-1.050;2022-12-24T16:34:11;4.30;;;2.00;;
18568;SDS011;14780;48.316;-1.050;2022-12-24T16:36:59;7.20;;;2.30;;
18568;SDS011;14780;48.316;-1.050;2022-12-24T16:39:44;5.55;;;2.60;;
18568;SDS011;14780;48.316;-1.050;2022-12-24T16:42:30;4.65;;;2.28;;
18568;SDS011;14780;48.316;-1.050;2022-12-24T16:45:34;5.32;;;2.17;;
18568;SDS011;14780;48.316;-1.050;2022-12-24T16:48:21;10.05;;;2.08;;
18568;SDS011;14780;48.316;-1.050;2022-12-24T16:51:07;7.75;;;2.33;;
18568;SDS011;14780;48.316;-1.050;2022-12-24T16:53:51;5.20;;;2.65;;
18568;SDS011;14780;48.316;-1.050;2022-12-24T16:56:40;8.45;;;2.58;;
18568;SDS011;14780;48.316;-1.050;2022-12-24T16:59:26;8.18;;;2.67;;
18568;SDS011;14780;48.316;-1.050;2022-12-24T17:02:12;7.70;;;2.67;;
18568;SDS011;14780;48.316;-1.050;2022-12-24T17:04:58;6.10;;;2.20;;
18568;SDS011;14780;48.316;-1.050;2022-12-24T17:07:43;8.48;;;2.47;;
18568;SDS011;14780;48.316;-1.050;2022-12-24T17:10:28;5.43;;;2.67;;
18568;SDS011;14780;48.316;-1.050;2022-12-24T17:13:12;4.45;;;2.28;;
18568;SDS011;14780;48.316;-1.050;2022-12-24T17:16:00;5.63;;;2.65;;
18568;SDS011;14780;48.316;-1.050;2022-12-24T17:18:48;5.07;;;2.67;;
18568;SDS011;14780;48.316;-1.050;2022-12-24T17:21:34;5.38;;;2.60;;
18568;SDS011;14780;48.316;-1.050;2022-12-24T17:24:19;6.55;;;2.70;;
18568;SDS011;14780;48.316;-1.050;2022-12-24T17:27:05;5.68;;;2.50;;
18568;SDS011;14780;48.316;-1.050;2022-12-24T17:29:49;4.78;;;2.42;;
18568;SDS011;14780;48.316;-1.050;2022-12-24T17:32:34;4.53;;;2.78;;
18568;SDS011;14780;48.316;-1.050;2022-12-24T17:35:19;10.00;;;4.95;;
18568;SDS011;14780;48.316;-1.050;2022-12-24T17:38:04;12.23;;;7.93;;
18568;SDS011;14780;48.316;-1.050;2022-12-24T17:40:48;14.95;;;10.88;;
18568;SDS011;14780;48.316;-1.050;2022-12-24T17:43:33;13.18;;;9.68;;
18568;SDS011;14780;48.316;-1.050;2022-12-24T17:46:20;13.63;;;9.90;;
18568;SDS011;14780;48.316;-1.050;2022-12-24T17:49:05;13.38;;;9.25;;
18568;SDS011;14780;48.316;-1.050;2022-12-24T17:51:50;11.95;;;9.18;;
18568;SDS011;14780;48.316;-1.050;2022-12-24T17:54:35;12.30;;;8.18;;
18568;SDS011;14780;48.316;-1.050;2022-12-24T17:57:19;10.32;;;7.50;;
18568;SDS011;14780;48.316;-1.050;2022-12-24T18:00:04;10.00;;;7.10;;
18568;SDS011;14780;48.316;-1.050;2022-12-24T18:02:50;11.35;;;7.50;;
18568;SDS011;14780;48.316;-1.050;2022-12-24T18:05:35;8.90;;;6.40;;
18568;SDS011;14780;48.316;-1.050;2022-12-24T18:08:20;10.63;;;6.70;;
18568;SDS011;14780;48.316;-1.050;2022-12-24T18:11:11;9.00;;;6.28;;
18568;SDS011;14780;48.316;-1.050;2022-12-24T18:13:56;11.18;;;7.57;;
18568;SDS011;14780;48.316;-1.050;2022-12-24T18:16:43;11.98;;;7.88;;
18568;SDS011;14780;48.316;-1.050;2022-12-24T18:19:34;15.25;;;8.07;;
18568;SDS011;14780;48.316;-1.050;2022-12-24T18:22:19;13.23;;;7.70;;
18568;SDS011;14780;48.316;-1.050;2022-12-24T18:25:04;9.82;;;7.20;;
18568;SDS011;14780;48.316;-1.050;2022-12-24T18:27:49;12.25;;;8.00;;
18568;SDS011;14780;48.316;-1.050;2022-12-24T18:30:34;12.02;;;7.03;;
18568;SDS011;14780;48.316;-1.050;2022-12-24T18:33:18;10.38;;;7.15;;
18568;SDS011;14780;48.316;-1.050;2022-12-24T18:36:03;12.00;;;6.63;;
18568;SDS011;14780;48.316;-1.050;2022-12-24T18:38:49;12.80;;;6.93;;